Time;durP1;ratioP1;P1;durP2;ratioP2;P2;SDS_P1;SDS_P2;PMS_P1;PMS_P2;Temp;Humidity;BMP_temperature;BMP_pressure;BME280_temperature;BME280_humidity;BME280_pressure;Samples;Min_cycle;Max_cycle;Signal;HPM_P1;HPM_P2
2023/08/17 00:04:56;;;;;;;11.68;4.53;;;;;;;;;;10287910;28;20537;-69
2023/08/17 00:09:55;;;;;;;9.82;4.18;;;;;;;;;;10289880;28;20083;-69
2023/08/17 00:14:53;;;;;;;4.63;3.33;;;;;;;;;;10292862;28;20083;-69
2023/08/17 00:19:52;;;;;;;6.55;3.90;;;;;;;;;;10298152;28;20060;-69
2023/08/17 00:24:51;;;;;;;5.40;3.20;;;;;;;;;;10296990;28;20088;-68
2023/08/17 00:29:49;;;;;;;11.43;3.90;;;;;;;;;;10295378;28;20080;-69
2023/08/17 00:34:47;;;;;;;12.23;3.17;;;;;;;;;;10296739;28;20073;-69
2023/08/17 00:39:47;;;;;;;5.18;3.58;;;;;;;;;;10297169;28;20078;-68
2023/08/17 00:44:45;;;;;;;5.28;3.38;;;;;;;;;;10295235;28;20080;-68
2023/08/17 00:49:43;;;;;;;5.68;3.53;;;;;;;;;;10295192;28;20065;-69
2023/08/17 00:54:42;;;;;;;9.70;3.63;;;;;;;;;;10296413;28;20071;-69
2023/08/17 00:59:42;;;;;;;8.90;4.10;;;;;;;;;;10295851;28;20065;-69
2023/08/17 01:04:46;;;;;;;4.80;3.90;;;;;;;;;;10277066;28;20095;-69
2023/08/17 01:09:45;;;;;;;11.57;4.18;;;;;;;;;;10294138;28;20088;-69
2023/08/17 01:14:51;;;;;;;6.13;3.70;;;;;;;;;;10295797;28;20084;-69
2023/08/17 01:19:50;;;;;;;3.97;3.28;;;;;;;;;;10280182;28;20525;-69
2023/08/17 01:24:50;;;;;;;5.50;3.95;;;;;;;;;;10294677;28;20518;-69
2023/08/17 01:29:48;;;;;;;5.55;3.97;;;;;;;;;;10294018;28;20079;-69
2023/08/17 01:34:51;;;;;;;7.60;3.42;;;;;;;;;;10276922;28;20079;-69
2023/08/17 01:39:53;;;;;;;4.93;3.80;;;;;;;;;;10292256;28;20075;-69
2023/08/17 01:44:52;;;;;;;7.73;3.97;;;;;;;;;;10293316;28;20088;-69
2023/08/17 01:49:50;;;;;;;7.68;3.40;;;;;;;;;;10294786;28;20072;-69
2023/08/17 01:54:50;;;;;;;3.72;3.20;;;;;;;;;;10291898;28;20060;-69
2023/08/17 01:59:49;;;;;;;8.10;3.35;;;;;;;;;;10273673;28;20087;-69
2023/08/17 02:04:47;;;;;;;8.93;4.00;;;;;;;;;;10278583;28;20083;-69
2023/08/17 02:09:45;;;;;;;10.68;4.22;;;;;;;;;;10294502;28;20076;-69
2023/08/17 02:14:45;;;;;;;6.65;3.85;;;;;;;;;;10292799;28;20402;-69
2023/08/17 02:19:43;;;;;;;8.45;4.05;;;;;;;;;;10290843;28;20068;-69
2023/08/17 02:24:42;;;;;;;5.32;3.88;;;;;;;;;;10290332;28;20084;-69
2023/08/17 02:29:40;;;;;;;13.32;5.47;;;;;;;;;;10291814;28;20083;-69
2023/08/17 02:34:40;;;;;;;8.85;4.90;;;;;;;;;;10292723;28;20075;-69
2023/08/17 02:39:38;;;;;;;8.65;5.22;;;;;;;;;;10292311;28;20068;-69
2023/08/17 02:44:37;;;;;;;7.78;4.90;;;;;;;;;;10290491;28;20465;-70
2023/08/17 02:49:36;;;;;;;6.80;4.28;;;;;;;;;;10273749;28;20076;-69
2023/08/17 02:54:35;;;;;;;7.25;4.80;;;;;;;;;;10289142;28;20068;-69
2023/08/17 02:59:34;;;;;;;6.90;4.15;;;;;;;;;;10289901;28;20192;-69
2023/08/17 03:04:32;;;;;;;10.00;5.15;;;;;;;;;;10273761;28;20075;-69
2023/08/17 03:09:31;;;;;;;8.00;4.65;;;;;;;;;;10290509;28;20076;-70
2023/08/17 03:14:30;;;;;;;6.50;5.03;;;;;;;;;;10270694;28;20076;-69
2023/08/17 03:19:30;;;;;;;10.40;4.88;;;;;;;;;;10290656;28;20075;-69
2023/08/17 03:24:28;;;;;;;12.15;4.82;;;;;;;;;;10274490;28;20498;-69
2023/08/17 03:29:27;;;;;;;9.93;5.18;;;;;;;;;;10275623;28;20088;-70
2023/08/17 03:34:28;;;;;;;10.77;5.53;;;;;;;;;;10282881;28;20064;-69
2023/08/17 03:39:26;;;;;;;8.95;5.20;;;;;;;;;;10289956;28;20060;-69
2023/08/17 03:44:25;;;;;;;12.77;5.47;;;;;;;;;;10274315;28;20572;-69
2023/08/17 03:49:23;;;;;;;16.02;6.45;;;;;;;;;;10294232;28;20144;-69
2023/08/17 03:54:23;;;;;;;8.77;6.30;;;;;;;;;;10276505;28;20068;-70
2023/08/17 03:59:21;;;;;;;7.55;5.40;;;;;;;;;;10294039;28;20072;-69
2023/08/17 04:04:19;;;;;;;9.80;5.95;;;;;;;;;;10282064;28;20075;-69
2023/08/17 04:09:17;;;;;;;9.43;7.00;;;;;;;;;;10297168;28;20087;-69
2023/08/17 04:14:17;;;;;;;11.98;6.53;;;;;;;;;;10297845;28;20067;-69
2023/08/17 04:19:18;;;;;;;8.85;5.95;;;;;;;;;;10278728;28;20048;-70
2023/08/17 04:24:17;;;;;;;8.60;6.15;;;;;;;;;;10295639;28;20061;-70
2023/08/17 04:29:17;;;;;;;6.72;5.60;;;;;;;;;;10294685;28;20083;-68
2023/08/17 04:34:16;;;;;;;9.48;7.20;;;;;;;;;;10297518;28;20079;-70
2023/08/17 04:39:14;;;;;;;9.70;6.45;;;;;;;;;;10280010;28;20171;-69
2023/08/17 04:44:14;;;;;;;8.95;5.53;;;;;;;;;;10297760;28;20049;-70
2023/08/17 04:49:13;;;;;;;6.97;6.18;;;;;;;;;;10296266;28;20510;-70
2023/08/17 04:54:12;;;;;;;14.85;8.23;;;;;;;;;;10293663;28;20080;-69
2023/08/17 04:59:10;;;;;;;10.95;6.65;;;;;;;;;;10292836;28;20045;-70
2023/08/17 05:04:09;;;;;;;8.80;6.20;;;;;;;;;;10279260;28;20431;-69
2023/08/17 05:09:09;;;;;;;8.48;6.28;;;;;;;;;;10295386;28;20601;-69
2023/08/17 05:14:07;;;;;;;9.43;6.50;;;;;;;;;;10295896;28;20068;-71
2023/08/17 05:19:06;;;;;;;9.82;5.90;;;;;;;;;;10295651;28;20072;-70
2023/08/17 05:24:05;;;;;;;7.47;6.43;;;;;;;;;;10292217;28;20083;-70
2023/08/17 05:29:07;;;;;;;10.50;5.60;;;;;;;;;;10278566;28;20072;-68
2023/08/17 05:34:06;;;;;;;6.93;5.85;;;;;;;;;;10294925;28;20094;-69
2023/08/17 05:39:05;;;;;;;8.13;6.65;;;;;;;;;;10277839;28;20088;-69
2023/08/17 05:44:06;;;;;;;13.95;8.27;;;;;;;;;;10278181;28;20186;-69
2023/08/17 05:49:04;;;;;;;10.00;6.80;;;;;;;;;;10295817;28;20088;-69
2023/08/17 05:54:03;;;;;;;11.77;6.80;;;;;;;;;;10293455;28;20075;-68
2023/08/17 05:59:01;;;;;;;10.80;7.00;;;;;;;;;;10278423;28;20095;-69
2023/08/17 06:04:01;;;;;;;12.88;6.10;;;;;;;;;;10286971;28;20098;-67
2023/08/17 06:09:01;;;;;;;8.23;6.05;;;;;;;;;;10284456;28;20073;-67
2023/08/17 06:13:59;;;;;;;8.48;6.38;;;;;;;;;;10292272;28;20528;-69
2023/08/17 06:18:58;;;;;;;10.20;6.13;;;;;;;;;;10292431;28;20075;-67
2023/08/17 06:23:57;;;;;;;6.72;6.03;;;;;;;;;;10291933;28;20084;-66
2023/08/17 06:28:56;;;;;;;8.27;6.38;;;;;;;;;;10290177;28;20080;-67
2023/08/17 06:33:54;;;;;;;10.75;7.88;;;;;;;;;;10281463;28;20075;-67
2023/08/17 06:38:52;;;;;;;14.25;8.50;;;;;;;;;;10278671;28;20303;-67
2023/08/17 06:43:52;;;;;;;6.32;5.72;;;;;;;;;;10288343;28;20079;-68
2023/08/17 06:48:50;;;;;;;12.00;6.00;;;;;;;;;;10277668;28;20072;-68
2023/08/17 06:53:48;;;;;;;6.28;5.68;;;;;;;;;;10265781;28;20529;-68
2023/08/17 06:58:46;;;;;;;9.48;5.97;;;;;;;;;;10283566;28;20079;-69
2023/08/17 07:03:47;;;;;;;10.88;5.88;;;;;;;;;;10279800;28;20513;-71
2023/08/17 07:08:45;;;;;;;9.30;6.30;;;;;;;;;;10271639;28;20153;-71
2023/08/17 07:13:45;;;;;;;6.60;5.90;;;;;;;;;;10273257;28;20069;-67
2023/08/17 07:18:43;;;;;;;12.18;5.25;;;;;;;;;;10279151;28;20583;-70
2023/08/17 07:23:45;;;;;;;9.35;5.85;;;;;;;;;;10268225;28;20631;-70
2023/08/17 07:28:43;;;;;;;6.55;5.88;;;;;;;;;;10279805;28;20073;-70
2023/08/17 07:33:41;;;;;;;15.10;5.47;;;;;;;;;;10288594;28;20069;-70
2023/08/17 07:38:40;;;;;;;7.35;6.15;;;;;;;;;;10273047;28;20052;-70
2023/08/17 07:43:41;;;;;;;9.13;5.60;;;;;;;;;;10277081;28;20072;-71
2023/08/17 07:48:40;;;;;;;7.50;5.57;;;;;;;;;;10282506;28;20087;-71
2023/08/17 07:53:39;;;;;;;14.90;6.57;;;;;;;;;;10273903;28;20075;-73
2023/08/17 07:58:39;;;;;;;16.75;5.70;;;;;;;;;;10286354;28;20064;-71
2023/08/17 08:03:38;;;;;;;11.35;6.15;;;;;;;;;;10275395;28;20079;-69
2023/08/17 08:08:36;;;;;;;11.73;5.80;;;;;;;;;;10280642;28;20073;-70
2023/08/17 08:13:34;;;;;;;9.13;5.28;;;;;;;;;;10282818;28;20067;-71
2023/08/17 08:18:34;;;;;;;6.13;5.50;;;;;;;;;;10284183;28;20098;-71
2023/08/17 08:23:32;;;;;;;7.15;5.38;;;;;;;;;;10287416;28;20064;-71
2023/08/17 08:28:30;;;;;;;9.43;5.45;;;;;;;;;;10286859;28;20076;-72
2023/08/17 08:33:29;;;;;;;7.32;4.38;;;;;;;;;;10289176;28;20072;-71
2023/08/17 08:38:29;;;;;;;8.50;5.22;;;;;;;;;;10294706;28;20079;-71
2023/08/17 08:43:27;;;;;;;11.05;6.03;;;;;;;;;;10296773;28;20064;-71
2023/08/17 08:48:27;;;;;;;11.35;6.05;;;;;;;;;;10295925;28;20072;-71
2023/08/17 08:53:29;;;;;;;17.77;6.35;;;;;;;;;;10296601;28;20064;-71
2023/08/17 08:58:34;;;;;;;8.32;5.63;;;;;;;;;;10293468;28;20509;-73
2023/08/17 09:03:33;;;;;;;7.78;5.07;;;;;;;;;;10295105;28;20072;-70
2023/08/17 09:08:32;;;;;;;7.55;5.63;;;;;;;;;;10296427;28;20076;-71
2023/08/17 09:13:30;;;;;;;37.50;33.70;;;;;;;;;;10294912;28;20119;-72
2023/08/17 09:18:30;;;;;;;7.35;4.93;;;;;;;;;;10293856;28;20083;-71
2023/08/17 09:23:28;;;;;;;8.50;4.63;;;;;;;;;;10295090;28;20084;-71
2023/08/17 09:28:26;;;;;;;9.43;4.25;;;;;;;;;;10294593;28;20088;-71
2023/08/17 09:33:25;;;;;;;4.70;3.95;;;;;;;;;;10295121;28;20072;-71
2023/08/17 09:38:25;;;;;;;9.43;4.43;;;;;;;;;;10295589;28;20068;-71
2023/08/17 09:43:24;;;;;;;6.65;4.47;;;;;;;;;;10293246;28;20597;-70
2023/08/17 09:48:22;;;;;;;6.40;3.72;;;;;;;;;;10290952;28;20544;-71
2023/08/17 09:53:21;;;;;;;6.30;4.10;;;;;;;;;;10278631;28;20433;-72
2023/08/17 09:58:20;;;;;;;9.68;4.38;;;;;;;;;;10294258;28;20083;-71
2023/08/17 10:03:19;;;;;;;7.43;3.55;;;;;;;;;;10293198;28;20064;-71
2023/08/17 10:08:20;;;;;;;11.38;4.30;;;;;;;;;;10290477;28;20079;-70
2023/08/17 10:13:23;;;;;;;4.78;4.25;;;;;;;;;;10291230;28;20080;-70
2023/08/17 10:18:27;;;;;;;4.68;3.63;;;;;;;;;;10293374;28;20510;-71
2023/08/17 10:23:27;;;;;;;7.95;4.78;;;;;;;;;;10291981;28;20079;-70
2023/08/17 10:28:27;;;;;;;4.07;3.67;;;;;;;;;;10289108;28;20076;-71
2023/08/17 10:33:26;;;;;;;4.45;3.83;;;;;;;;;;10289357;28;20069;-71
2023/08/17 10:38:25;;;;;;;6.72;3.58;;;;;;;;;;10294413;28;20079;-71
2023/08/17 10:43:23;;;;;;;4.82;3.10;;;;;;;;;;10293798;28;20313;-70
2023/08/17 10:48:29;;;;;;;3.03;2.67;;;;;;;;;;10291432;28;20076;-71
2023/08/17 10:53:38;;;;;;;6.40;2.95;;;;;;;;;;10290549;28;20524;-71
2023/08/17 10:58:37;;;;;;;9.95;3.65;;;;;;;;;;10290947;28;20083;-71
2023/08/17 11:03:37;;;;;;;6.28;3.03;;;;;;;;;;10289157;28;20045;-71
2023/08/17 11:08:40;;;;;;;6.13;3.70;;;;;;;;;;10292621;28;20092;-71
2023/08/17 11:13:41;;;;;;;7.40;3.03;;;;;;;;;;10291643;28;20064;-71
2023/08/17 11:18:41;;;;;;;5.30;3.25;;;;;;;;;;10290803;28;20083;-71
2023/08/17 11:23:39;;;;;;;5.50;2.88;;;;;;;;;;10290226;28;20080;-71
2023/08/17 11:28:38;;;;;;;5.90;3.53;;;;;;;;;;10292326;28;20127;-70
2023/08/17 11:33:40;;;;;;;4.20;3.38;;;;;;;;;;10289714;28;20080;-71
2023/08/17 11:38:40;;;;;;;5.13;3.33;;;;;;;;;;10289069;28;20498;-71
2023/08/17 11:43:38;;;;;;;8.82;3.28;;;;;;;;;;10287781;28;20098;-71
2023/08/17 11:48:37;;;;;;;3.53;2.70;;;;;;;;;;10286067;28;20088;-71
2023/08/17 11:53:38;;;;;;;6.13;3.22;;;;;;;;;;10291533;28;20072;-71
2023/08/17 11:58:41;;;;;;;5.47;2.95;;;;;;;;;;10289537;28;20065;-70
2023/08/17 12:03:40;;;;;;;5.80;3.20;;;;;;;;;;10292199;28;20075;-71
2023/08/17 12:08:42;;;;;;;3.53;3.00;;;;;;;;;;10291841;28;20278;-70
2023/08/17 12:13:45;;;;;;;7.13;3.15;;;;;;;;;;10299869;28;20099;-70
2023/08/17 12:18:44;;;;;;;7.88;3.03;;;;;;;;;;10296540;28;20517;-72
2023/08/17 12:23:44;;;;;;;7.60;2.92;;;;;;;;;;10296962;28;20095;-71
2023/08/17 12:28:42;;;;;;;5.88;2.97;;;;;;;;;;10295598;28;20081;-70
2023/08/17 12:33:40;;;;;;;7.85;2.70;;;;;;;;;;10295178;28;20076;-70
2023/08/17 12:38:44;;;;;;;4.57;2.55;;;;;;;;;;10293481;28;20068;-70
2023/08/17 12:43:44;;;;;;;5.72;2.97;;;;;;;;;;10296020;28;20091;-70
2023/08/17 12:48:42;;;;;;;6.15;3.38;;;;;;;;;;10294915;28;20075;-71
2023/08/17 12:53:41;;;;;;;8.43;3.20;;;;;;;;;;10297084;28;20435;-71
2023/08/17 12:58:40;;;;;;;4.60;2.80;;;;;;;;;;10295063;28;20068;-71
2023/08/17 13:03:39;;;;;;;3.17;2.88;;;;;;;;;;10296934;28;20072;-70
2023/08/17 13:08:38;;;;;;;3.83;3.22;;;;;;;;;;10295159;28;20099;-71
2023/08/17 13:13:36;;;;;;;5.22;3.35;;;;;;;;;;10296784;28;20600;-71
2023/08/17 13:18:34;;;;;;;4.80;2.80;;;;;;;;;;10295539;28;20068;-70
2023/08/17 13:23:34;;;;;;;5.63;3.88;;;;;;;;;;10295461;28;20087;-70
2023/08/17 13:28:32;;;;;;;8.25;3.40;;;;;;;;;;10294862;28;20533;-70
2023/08/17 13:33:30;;;;;;;5.88;2.92;;;;;;;;;;10292153;28;20455;-71
2023/08/17 13:38:29;;;;;;;4.28;2.95;;;;;;;;;;10294373;28;20071;-71
2023/08/17 13:43:28;;;;;;;9.70;3.22;;;;;;;;;;10294733;28;20085;-71
2023/08/17 13:48:27;;;;;;;8.30;3.08;;;;;;;;;;10293746;28;20084;-71
2023/08/17 13:53:25;;;;;;;12.18;3.90;;;;;;;;;;10294066;28;20418;-72
2023/08/17 13:58:23;;;;;;;5.88;2.78;;;;;;;;;;10291729;28;20072;-71
2023/08/17 14:03:23;;;;;;;9.00;4.47;;;;;;;;;;10292244;28;20064;-68
2023/08/17 14:08:21;;;;;;;6.25;4.25;;;;;;;;;;10293414;28;20060;-70
2023/08/17 14:13:19;;;;;;;8.68;3.50;;;;;;;;;;10294963;28;20076;-71
2023/08/17 14:18:18;;;;;;;7.47;3.38;;;;;;;;;;10291614;28;20072;-72
2023/08/17 14:23:17;;;;;;;23.98;6.47;;;;;;;;;;10292233;28;20095;-71
2023/08/17 14:28:16;;;;;;;12.63;5.38;;;;;;;;;;10292800;28;20488;-70
2023/08/17 14:33:15;;;;;;;8.60;4.15;;;;;;;;;;10293262;28;20067;-70
2023/08/17 14:38:14;;;;;;;11.82;4.07;;;;;;;;;;10289752;28;20080;-70
2023/08/17 14:43:14;;;;;;;6.78;4.10;;;;;;;;;;10291685;28;20541;-71
2023/08/17 14:48:12;;;;;;;10.65;4.68;;;;;;;;;;10290479;28;20097;-71
2023/08/17 14:53:10;;;;;;;9.20;3.60;;;;;;;;;;10293116;28;20069;-71
2023/08/17 14:58:09;;;;;;;14.20;4.38;;;;;;;;;;10292292;28;20075;-70
2023/08/17 15:03:08;;;;;;;10.30;4.22;;;;;;;;;;10289015;28;20095;-69
2023/08/17 15:08:07;;;;;;;9.15;5.22;;;;;;;;;;10291225;28;20075;-71
2023/08/17 15:13:05;;;;;;;5.75;4.18;;;;;;;;;;10290915;28;20095;-72
2023/08/17 15:18:09;;;;;;;5.75;3.60;;;;;;;;;;10291175;28;20068;-71
2023/08/17 15:23:10;;;;;;;14.38;4.55;;;;;;;;;;10291497;28;20081;-71
2023/08/17 15:28:08;;;;;;;5.22;4.65;;;;;;;;;;10275698;28;20068;-70
2023/08/17 15:33:06;;;;;;;7.95;4.28;;;;;;;;;;10276775;28;20084;-70
2023/08/17 15:38:06;;;;;;;10.32;4.78;;;;;;;;;;10287374;28;20075;-69
2023/08/17 15:43:04;;;;;;;7.40;3.70;;;;;;;;;;10285517;28;20076;-71
2023/08/17 15:48:03;;;;;;;5.28;3.78;;;;;;;;;;10278520;28;20163;-71
2023/08/17 15:53:02;;;;;;;7.90;3.50;;;;;;;;;;10284791;28;20555;-71
2023/08/17 15:58:01;;;;;;;7.53;3.92;;;;;;;;;;10287803;28;20533;-71
2023/08/17 16:03:00;;;;;;;8.82;3.42;;;;;;;;;;10285814;28;20080;-71
2023/08/17 16:07:58;;;;;;;9.27;3.83;;;;;;;;;;10288620;28;20061;-70
2023/08/17 16:12:57;;;;;;;5.45;3.35;;;;;;;;;;10290882;28;20072;-70
2023/08/17 16:17:56;;;;;;;6.90;3.70;;;;;;;;;;10288984;28;20072;-70
2023/08/17 16:22:57;;;;;;;6.95;3.70;;;;;;;;;;10282332;28;20526;-70
2023/08/17 16:27:56;;;;;;;7.13;3.63;;;;;;;;;;10282796;28;20064;-70
2023/08/17 16:32:54;;;;;;;6.65;3.53;;;;;;;;;;10278245;28;20080;-70
2023/08/17 16:37:54;;;;;;;9.90;3.78;;;;;;;;;;10280207;28;20056;-71
2023/08/17 16:42:52;;;;;;;7.93;3.75;;;;;;;;;;10279352;28;20064;-70
2023/08/17 16:47:57;;;;;;;8.98;3.70;;;;;;;;;;10281307;28;20067;-71
2023/08/17 16:52:57;;;;;;;12.23;4.82;;;;;;;;;;10282062;28;20084;-70
2023/08/17 16:57:55;;;;;;;9.07;4.13;;;;;;;;;;10268944;28;20068;-70
2023/08/17 17:02:55;;;;;;;10.82;4.13;;;;;;;;;;10285638;28;20079;-70
2023/08/17 17:07:53;;;;;;;8.70;4.20;;;;;;;;;;10272162;28;20081;-70
2023/08/17 17:12:56;;;;;;;9.98;4.43;;;;;;;;;;10282693;28;20458;-68
2023/08/17 17:17:54;;;;;;;8.68;5.00;;;;;;;;;;10292409;28;20065;-68
2023/08/17 17:22:53;;;;;;;12.32;4.60;;;;;;;;;;10291923;28;20099;-70
2023/08/17 17:27:51;;;;;;;5.90;3.97;;;;;;;;;;10295342;28;20068;-70
2023/08/17 17:32:51;;;;;;;6.93;4.68;;;;;;;;;;10292635;28;20081;-69
2023/08/17 17:37:49;;;;;;;5.32;3.95;;;;;;;;;;10290184;28;20477;-68
2023/08/17 17:42:47;;;;;;;10.23;4.53;;;;;;;;;;10291925;28;20079;-69
2023/08/17 17:47:45;;;;;;;8.65;5.03;;;;;;;;;;10285296;28;20081;-69
2023/08/17 17:52:45;;;;;;;9.25;5.50;;;;;;;;;;10288548;28;20075;-69
2023/08/17 17:57:45;;;;;;;7.88;4.03;;;;;;;;;;10289956;28;20071;-69
2023/08/17 18:02:44;;;;;;;10.05;4.70;;;;;;;;;;10296692;28;20095;-69
2023/08/17 18:07:42;;;;;;;8.05;3.67;;;;;;;;;;10290735;28;20068;-69
2023/08/17 18:12:41;;;;;;;8.23;4.35;;;;;;;;;;10293003;28;20497;-69
2023/08/17 18:17:40;;;;;;;8.23;4.22;;;;;;;;;;10290814;28;20927;-68
2023/08/17 18:22:38;;;;;;;7.97;3.72;;;;;;;;;;10286183;28;20076;-69
2023/08/17 18:27:36;;;;;;;6.60;4.00;;;;;;;;;;10282624;28;20068;-69
2023/08/17 18:32:36;;;;;;;15.65;3.72;;;;;;;;;;10288292;28;20497;-69
2023/08/17 18:37:34;;;;;;;8.48;3.88;;;;;;;;;;10283650;28;20068;-69
2023/08/17 18:42:32;;;;;;;7.72;3.85;;;;;;;;;;10285688;28;20071;-68
2023/08/17 18:47:31;;;;;;;12.07;4.80;;;;;;;;;;10291734;28;20068;-69
2023/08/17 18:52:30;;;;;;;9.98;3.88;;;;;;;;;;10285052;28;20076;-69
2023/08/17 18:57:29;;;;;;;7.88;4.22;;;;;;;;;;10287411;28;20072;-68
2023/08/17 19:02:31;;;;;;;5.63;4.65;;;;;;;;;;10288766;28;20072;-69
2023/08/17 19:07:34;;;;;;;5.47;4.05;;;;;;;;;;10290965;28;20106;-69
2023/08/17 19:12:32;;;;;;;7.50;4.03;;;;;;;;;;10291567;28;20068;-68
2023/08/17 19:17:31;;;;;;;6.35;3.60;;;;;;;;;;10278016;28;20073;-67
2023/08/17 19:22:30;;;;;;;6.75;4.25;;;;;;;;;;10282131;28;20099;-68
2023/08/17 19:27:30;;;;;;;5.93;4.00;;;;;;;;;;10286654;28;20076;-69
2023/08/17 19:32:28;;;;;;;8.18;4.18;;;;;;;;;;10283707;28;20513;-69
2023/08/17 19:37:26;;;;;;;6.72;3.90;;;;;;;;;;10286633;28;20630;-69
2023/08/17 19:42:30;;;;;;;7.60;4.65;;;;;;;;;;10286113;28;20460;-70
2023/08/17 19:47:28;;;;;;;7.63;4.13;;;;;;;;;;10277181;28;20080;-69
2023/08/17 19:52:27;;;;;;;5.15;4.03;;;;;;;;;;10290352;28;20080;-69
2023/08/17 19:57:25;;;;;;;5.10;4.15;;;;;;;;;;10286786;28;20088;-69
2023/08/17 20:02:26;;;;;;;6.45;4.25;;;;;;;;;;10276396;28;20076;-69
2023/08/17 20:07:24;;;;;;;8.07;4.75;;;;;;;;;;10286688;28;20493;-69
2023/08/17 20:12:26;;;;;;;11.25;4.75;;;;;;;;;;10276972;28;20076;-69
2023/08/17 20:17:26;;;;;;;4.45;4.05;;;;;;;;;;10286857;28;20080;-69
2023/08/17 20:22:25;;;;;;;6.57;4.93;;;;;;;;;;10281687;28;20088;-69
2023/08/17 20:27:23;;;;;;;5.68;4.70;;;;;;;;;;10279520;28;20462;-69
2023/08/17 20:32:21;;;;;;;7.00;4.40;;;;;;;;;;10293309;28;20077;-69
2023/08/17 20:37:21;;;;;;;12.30;5.38;;;;;;;;;;10290411;28;20076;-69
2023/08/17 20:42:19;;;;;;;6.03;4.38;;;;;;;;;;10292800;28;20083;-68
2023/08/17 20:47:18;;;;;;;8.75;5.45;;;;;;;;;;10278085;28;20108;-68
2023/08/17 20:52:16;;;;;;;5.03;4.47;;;;;;;;;;10292524;28;20469;-68
2023/08/17 20:57:15;;;;;;;5.40;4.43;;;;;;;;;;10296667;28;20084;-69
2023/08/17 21:02:14;;;;;;;7.15;4.72;;;;;;;;;;10293725;28;20084;-69
2023/08/17 21:07:12;;;;;;;7.03;4.75;;;;;;;;;;10285378;28;20072;-68
2023/08/17 21:12:11;;;;;;;6.22;5.32;;;;;;;;;;10292821;28;20088;-69
2023/08/17 21:17:10;;;;;;;4.65;3.92;;;;;;;;;;10291915;28;20112;-68
2023/08/17 21:22:09;;;;;;;4.45;3.63;;;;;;;;;;10292005;28;20071;-69
2023/08/17 21:27:07;;;;;;;6.80;4.28;;;;;;;;;;10293341;28;20075;-69
2023/08/17 21:32:05;;;;;;;5.93;4.03;;;;;;;;;;10288011;28;20072;-69
2023/08/17 21:37:09;;;;;;;7.85;4.75;;;;;;;;;;10294531;28;20080;-69
2023/08/17 21:42:07;;;;;;;15.73;4.38;;;;;;;;;;10275107;28;20084;-69
2023/08/17 21:47:05;;;;;;;5.30;4.05;;;;;;;;;;10275032;28;20087;-69
2023/08/17 21:52:04;;;;;;;7.20;4.45;;;;;;;;;;10293298;28;20068;-69
2023/08/17 21:57:03;;;;;;;5.65;4.43;;;;;;;;;;10294768;28;20072;-69
2023/08/17 22:02:02;;;;;;;5.90;4.38;;;;;;;;;;10292724;28;20070;-68
2023/08/17 22:07:01;;;;;;;5.30;3.90;;;;;;;;;;10294255;28;20072;-68
2023/08/17 22:12:00;;;;;;;7.82;5.20;;;;;;;;;;10294593;28;20072;-68
2023/08/17 22:16:59;;;;;;;5.03;4.53;;;;;;;;;;10293186;28;20532;-68
2023/08/17 22:21:58;;;;;;;5.75;4.80;;;;;;;;;;10292369;28;20037;-68
2023/08/17 22:26:56;;;;;;;5.22;3.78;;;;;;;;;;10293709;28;20067;-68
2023/08/17 22:31:54;;;;;;;4.97;3.80;;;;;;;;;;10292839;28;20067;-68
2023/08/17 22:36:54;;;;;;;5.07;3.75;;;;;;;;;;10293474;28;20064;-69
2023/08/17 22:41:52;;;;;;;6.43;3.72;;;;;;;;;;10291969;28;20313;-68
2023/08/17 22:46:50;;;;;;;6.07;3.92;;;;;;;;;;10292604;28;20080;-68
2023/08/17 22:51:49;;;;;;;4.38;3.72;;;;;;;;;;10290239;28;20080;-68
2023/08/17 22:56:48;;;;;;;4.85;4.20;;;;;;;;;;10288800;28;20473;-69
2023/08/17 23:01:46;;;;;;;9.60;4.30;;;;;;;;;;10287619;28;20509;-68
2023/08/17 23:06:45;;;;;;;8.25;3.97;;;;;;;;;;10291296;28;20041;-68
2023/08/17 23:11:43;;;;;;;6.75;3.92;;;;;;;;;;10292651;28;20532;-68
2023/08/17 23:16:43;;;;;;;4.20;3.80;;;;;;;;;;10290477;28;20072;-69
2023/08/17 23:21:41;;;;;;;6.97;4.38;;;;;;;;;;10289503;28;20362;-69
2023/08/17 23:26:39;;;;;;;5.22;4.45;;;;;;;;;;10291150;28;20092;-69
2023/08/17 23:31:37;;;;;;;7.60;5.35;;;;;;;;;;10290528;28;21573;-69
2023/08/17 23:36:37;;;;;;;10.52;5.63;;;;;;;;;;10290722;28;20064;-69
2023/08/17 23:41:35;;;;;;;10.27;5.47;;;;;;;;;;10287599;28;20075;-68
2023/08/17 23:46:34;;;;;;;6.43;5.15;;;;;;;;;;10291139;28;20064;-69
2023/08/17 23:51:32;;;;;;;7.60;5.00;;;;;;;;;;10290881;28;20073;-69
2023/08/17 23:56:31;;;;;;;7.43;5.55;;;;;;;;;;10290155;28;20094;-69
